createdAt,value
2018-01-14T00:02:11.682Z,8.17
2018-01-14T00:04:39.999Z,6.80
2018-01-14T00:07:09.187Z,7.07
2018-01-14T00:09:39.021Z,6.37
2018-01-14T00:12:07.336Z,7.00
2018-01-14T00:14:35.632Z,7.57
2018-01-14T00:17:03.952Z,8.10
2018-01-14T00:19:32.298Z,7.27
2018-01-14T00:22:00.688Z,7.67
2018-01-14T00:27:29.853Z,6.73
2018-01-14T00:29:58.249Z,7.77
2018-01-14T00:32:26.721Z,7.23
2018-01-14T00:34:55.016Z,7.80
2018-01-14T00:37:23.381Z,7.00
2018-01-14T00:39:51.706Z,6.40
2018-01-14T00:42:20.005Z,6.97
2018-01-14T00:44:48.303Z,9.23
2018-01-14T00:47:16.619Z,6.97
2018-01-14T00:49:44.934Z,6.97
2018-01-14T00:52:13.260Z,6.30
2018-01-14T00:54:41.617Z,8.87
2018-01-14T00:57:09.908Z,9.20
2018-01-14T00:59:38.243Z,7.83
2018-01-14T01:02:07.312Z,5.23
2018-01-14T01:04:35.612Z,7.87
2018-01-14T01:07:03.929Z,7.60
2018-01-14T01:09:32.236Z,6.80
2018-01-14T01:12:01.318Z,6.67
2018-01-14T01:14:30.376Z,6.10
2018-01-14T01:16:59.470Z,5.87
2018-01-14T01:22:06.895Z,8.20
2018-01-14T01:24:35.978Z,6.20
2018-01-14T01:27:04.548Z,7.93
2018-01-14T01:29:32.873Z,6.90
2018-01-14T01:32:01.164Z,6.73
2018-01-14T01:34:29.475Z,6.67
2018-01-14T01:36:58.589Z,8.07
2018-01-14T01:39:27.024Z,8.33
2018-01-14T01:41:55.315Z,8.30
2018-01-14T01:44:23.613Z,7.30
2018-01-14T01:46:51.929Z,6.90
2018-01-14T01:49:20.241Z,6.63
2018-01-14T01:51:49.376Z,7.23
2018-01-14T01:54:17.673Z,7.20
2018-01-14T01:56:46.771Z,8.13
2018-01-14T01:59:15.060Z,7.60
2018-01-14T02:01:43.398Z,9.00
2018-01-14T02:04:11.691Z,8.33
2018-01-14T02:06:40.020Z,8.70
2018-01-14T02:09:08.348Z,8.00
2018-01-14T02:11:36.657Z,6.47
2018-01-14T02:14:04.983Z,7.07
2018-01-14T02:16:33.297Z,7.47
2018-01-14T02:19:01.668Z,7.20
2018-01-14T02:21:30.742Z,7.17
2018-01-14T02:23:59.844Z,7.83
2018-01-14T02:26:28.164Z,7.90
2018-01-14T02:28:56.500Z,7.60
2018-01-14T02:31:24.814Z,8.20
2018-01-14T02:33:53.117Z,7.20
2018-01-14T02:36:22.203Z,9.10
2018-01-14T02:38:50.506Z,8.00
2018-01-14T02:41:19.864Z,7.00
2018-01-14T02:43:48.199Z,8.03
2018-01-14T02:46:16.516Z,7.37
2018-01-14T02:48:44.849Z,8.60
2018-01-14T02:51:13.976Z,8.60
2018-01-14T02:53:42.280Z,9.23
2018-01-14T02:56:10.595Z,9.57
2018-01-14T02:58:38.912Z,7.77
2018-01-14T03:01:07.272Z,7.90
2018-01-14T03:03:35.568Z,9.03
2018-01-14T03:06:04.658Z,7.80
2018-01-14T03:08:33.747Z,9.07
2018-01-14T03:11:02.081Z,9.07
2018-01-14T03:13:31.142Z,10.73
2018-01-14T03:15:59.475Z,10.07
2018-01-14T03:18:27.785Z,8.90
2018-01-14T03:20:56.720Z,7.82
2018-01-14T03:23:26.634Z,8.97
2018-01-14T03:25:59.119Z,10.03
2018-01-14T03:28:27.441Z,8.30
2018-01-14T03:30:56.812Z,8.67
2018-01-14T03:33:26.861Z,9.00
2018-01-14T03:35:55.861Z,10.43
2018-01-14T03:38:26.003Z,8.80
2018-01-14T03:40:55.480Z,10.70
2018-01-14T03:43:23.824Z,8.20
2018-01-14T03:45:52.121Z,9.77
2018-01-14T03:48:20.416Z,12.10
2018-01-14T03:50:48.969Z,11.33
2018-01-14T03:53:17.303Z,9.50
2018-01-14T03:55:46.367Z,9.33
2018-01-14T03:58:15.466Z,9.43
2018-01-14T04:00:43.808Z,10.13
2018-01-14T04:03:12.149Z,13.90
2018-01-14T04:05:41.308Z,11.85
2018-01-14T04:08:09.609Z,11.38
2018-01-14T04:10:37.941Z,11.45
2018-01-14T04:13:06.295Z,11.07
2018-01-14T04:15:34.615Z,10.33
2018-01-14T04:18:02.924Z,11.23
2018-01-14T04:20:31.224Z,12.43
2018-01-14T04:23:00.316Z,10.30
2018-01-14T04:25:28.610Z,9.80
2018-01-14T04:27:57.804Z,10.88
2018-01-14T04:30:29.797Z,11.23
2018-01-14T04:32:58.121Z,9.57
2018-01-14T04:35:27.782Z,12.10
2018-01-14T04:37:57.012Z,10.73
2018-01-14T04:40:25.425Z,12.40
2018-01-14T04:42:55.657Z,12.30
2018-01-14T04:45:24.004Z,10.30
2018-01-14T04:47:52.297Z,13.23
2018-01-14T04:50:20.605Z,11.00
2018-01-14T04:52:48.950Z,12.07
2018-01-14T04:55:18.060Z,12.63
2018-01-14T04:57:46.415Z,11.50
2018-01-14T05:00:14.708Z,11.70
2018-01-14T05:02:43.049Z,12.43
2018-01-14T05:05:11.376Z,11.13
2018-01-14T05:07:39.726Z,10.13
2018-01-14T05:10:08.040Z,11.67
2018-01-14T05:12:37.104Z,9.48
2018-01-14T05:15:05.445Z,12.77
2018-01-14T05:17:33.772Z,12.53
2018-01-14T05:20:02.097Z,11.37
2018-01-14T05:22:31.207Z,12.07
2018-01-14T05:24:59.985Z,12.20
2018-01-14T05:27:28.297Z,11.27
2018-01-14T05:29:57.147Z,11.93
2018-01-14T05:32:26.277Z,10.10
2018-01-14T05:34:56.125Z,11.47
2018-01-14T05:37:24.428Z,12.52
2018-01-14T05:39:52.756Z,8.40
2018-01-14T05:42:21.111Z,11.40
2018-01-14T05:44:49.413Z,12.53
2018-01-14T05:47:17.780Z,12.80
2018-01-14T05:49:46.900Z,12.07
2018-01-14T05:52:15.960Z,10.13
2018-01-14T05:54:44.317Z,11.70
2018-01-14T05:57:12.640Z,11.40
2018-01-14T05:59:41.719Z,10.27
2018-01-14T06:02:10.831Z,12.30
2018-01-14T06:04:39.147Z,12.83
2018-01-14T06:07:07.492Z,11.35
2018-01-14T06:09:36.608Z,11.07
2018-01-14T06:12:04.945Z,12.10
2018-01-14T06:14:34.013Z,12.67
2018-01-14T06:17:02.362Z,13.13
2018-01-14T06:19:30.682Z,11.67
2018-01-14T06:21:59.128Z,13.17
2018-01-14T06:24:27.458Z,11.70
2018-01-14T06:26:55.759Z,10.07
2018-01-14T06:29:24.291Z,10.57
2018-01-14T06:31:52.699Z,11.20
2018-01-14T06:34:41.232Z,10.43
2018-01-14T06:37:09.927Z,11.27
2018-01-14T06:39:38.306Z,12.10
2018-01-14T06:42:06.880Z,9.27
2018-01-14T06:44:35.321Z,11.12
2018-01-14T06:47:03.769Z,11.60
2018-01-14T06:49:36.119Z,10.77
2018-01-14T06:52:04.564Z,11.80
2018-01-14T06:54:33.624Z,11.35
2018-01-14T06:57:01.946Z,11.50
2018-01-14T06:59:30.293Z,11.23
2018-01-14T07:01:58.595Z,11.27
2018-01-14T07:04:27.662Z,10.53
2018-01-14T07:06:56.029Z,10.25
2018-01-14T07:09:24.336Z,11.15
2018-01-14T07:11:52.670Z,10.50
2018-01-14T07:14:21.034Z,11.10
2018-01-14T07:16:50.124Z,11.60
2018-01-14T07:19:18.440Z,10.50
2018-01-14T07:21:46.779Z,10.95
2018-01-14T07:24:15.080Z,9.93
2018-01-14T07:26:44.144Z,11.55
2018-01-14T07:29:12.502Z,9.60
2018-01-14T07:31:40.863Z,10.10
2018-01-14T07:34:09.288Z,11.40
2018-01-14T07:36:37.676Z,9.33
2018-01-14T07:39:05.991Z,9.30
2018-01-14T07:41:34.342Z,8.97
2018-01-14T07:44:03.436Z,8.33
2018-01-14T07:46:32.522Z,10.55
2018-01-14T07:49:00.876Z,8.73
2018-01-14T07:51:29.185Z,8.13
2018-01-14T07:53:57.481Z,8.95
2018-01-14T07:56:25.839Z,9.88
2018-01-14T07:58:54.141Z,10.67
2018-01-14T08:01:22.429Z,9.60
2018-01-14T08:03:50.743Z,9.07
2018-01-14T08:06:19.829Z,8.30
2018-01-14T08:08:48.129Z,9.27
2018-01-14T08:11:16.576Z,9.23
2018-01-14T08:13:45.701Z,9.10
2018-01-14T08:16:14.036Z,8.47
2018-01-14T08:18:43.139Z,8.87
2018-01-14T08:21:11.428Z,8.47
2018-01-14T08:23:39.766Z,9.68
2018-01-14T08:26:08.090Z,7.67
2018-01-14T08:28:36.425Z,8.90
2018-01-14T08:31:05.522Z,9.02
2018-01-14T08:33:33.817Z,8.23
2018-01-14T08:36:02.144Z,8.50
2018-01-14T08:38:30.569Z,8.70
2018-01-14T08:40:58.947Z,8.07
2018-01-14T08:43:27.283Z,7.78
2018-01-14T08:45:55.684Z,9.18
2018-01-14T08:48:26.326Z,8.27
2018-01-14T08:50:55.407Z,13.50
2018-01-14T08:53:24.964Z,8.80
2018-01-14T08:55:53.294Z,8.17
2018-01-14T08:58:21.632Z,7.77
2018-01-14T09:00:49.980Z,8.17
2018-01-14T09:03:18.312Z,9.87
2018-01-14T09:05:46.643Z,10.70
2018-01-14T09:08:14.959Z,9.50
2018-01-14T09:10:44.028Z,8.10
2018-01-14T09:13:13.120Z,8.97
2018-01-14T09:15:41.413Z,8.50
2018-01-14T09:18:09.727Z,7.83
2018-01-14T09:20:38.043Z,7.37
2018-01-14T09:23:06.434Z,7.90
2018-01-14T09:25:34.747Z,7.30
2018-01-14T09:28:03.032Z,7.80
2018-01-14T09:30:49.163Z,7.60
2018-01-14T09:33:18.261Z,7.00
2018-01-14T09:35:46.609Z,7.50
2018-01-14T09:38:14.922Z,7.80
2018-01-14T09:40:43.247Z,6.57
2018-01-14T09:43:11.567Z,7.40
2018-01-14T09:45:39.911Z,8.33
2018-01-14T09:48:08.216Z,7.30
2018-01-14T09:50:36.542Z,7.23
2018-01-14T09:53:04.852Z,6.70
2018-01-14T09:55:33.983Z,7.63
2018-01-14T09:58:02.328Z,7.60
2018-01-14T10:00:30.627Z,7.30
2018-01-14T10:02:59.736Z,7.50
2018-01-14T10:05:28.027Z,8.00
2018-01-14T10:07:56.336Z,6.67
2018-01-14T10:10:24.767Z,7.33
2018-01-14T10:12:53.860Z,6.73
2018-01-14T10:15:22.193Z,6.60
2018-01-14T10:17:50.497Z,7.37
2018-01-14T10:20:18.866Z,7.40
2018-01-14T10:22:47.204Z,7.60
2018-01-14T10:25:15.511Z,6.70
2018-01-14T10:27:43.810Z,6.30
2018-01-14T10:30:12.156Z,7.17
2018-01-14T10:32:40.454Z,7.50
2018-01-14T10:35:08.747Z,7.00
2018-01-14T10:37:37.165Z,7.37
2018-01-14T10:40:05.478Z,7.10
2018-01-14T10:42:33.843Z,7.80
2018-01-14T10:45:02.182Z,6.87
2018-01-14T10:47:31.505Z,6.17
2018-01-14T10:49:59.819Z,6.77
2018-01-14T10:52:28.135Z,6.63
2018-01-14T10:54:56.481Z,6.40
2018-01-14T10:57:25.541Z,7.43
2018-01-14T10:59:53.872Z,7.37
2018-01-14T11:02:22.164Z,6.37
2018-01-14T11:04:50.451Z,7.30
2018-01-14T11:07:19.061Z,6.20
2018-01-14T11:09:47.520Z,6.50
2018-01-14T11:12:16.569Z,7.13
2018-01-14T11:14:44.875Z,6.30
2018-01-14T11:17:13.192Z,5.60
2018-01-14T11:19:41.753Z,5.80
2018-01-14T11:22:10.109Z,6.87
2018-01-14T11:24:38.408Z,6.23
2018-01-14T11:27:06.730Z,6.73
2018-01-14T11:29:44.305Z,5.93
2018-01-14T11:32:12.606Z,7.20
2018-01-14T11:34:40.919Z,6.87
2018-01-14T11:37:09.232Z,5.93
2018-01-14T11:39:37.532Z,5.27
2018-01-14T11:42:05.848Z,6.77
2018-01-14T11:44:34.913Z,5.10
2018-01-14T11:47:03.200Z,6.87
2018-01-14T11:49:31.517Z,6.50
2018-01-14T11:51:59.879Z,6.57
2018-01-14T11:54:28.169Z,7.80
2018-01-14T11:56:56.494Z,7.20
2018-01-14T11:59:26.021Z,6.93
2018-01-14T12:01:55.111Z,6.93
2018-01-14T12:04:23.420Z,6.10
2018-01-14T12:06:51.731Z,6.10
2018-01-14T12:09:20.098Z,7.10
2018-01-14T12:11:48.388Z,6.73
2018-01-14T12:14:16.706Z,7.10
2018-01-14T12:16:45.029Z,7.23
2018-01-14T12:19:13.416Z,7.27
2018-01-14T12:21:41.735Z,7.30
2018-01-14T12:24:10.049Z,6.80
2018-01-14T12:26:38.336Z,6.17
2018-01-14T12:29:06.671Z,6.27
2018-01-14T12:31:34.966Z,6.67
2018-01-14T12:34:39.311Z,6.37
2018-01-14T12:37:07.612Z,6.93
2018-01-14T12:39:36.494Z,6.43
2018-01-14T12:42:04.879Z,6.80
2018-01-14T12:44:33.199Z,5.80
2018-01-14T12:47:02.288Z,6.17
2018-01-14T12:49:31.084Z,6.70
2018-01-14T12:52:00.167Z,6.63
2018-01-14T12:54:28.542Z,5.87
2018-01-14T12:56:56.825Z,6.77
2018-01-14T12:59:25.143Z,6.70
2018-01-14T13:01:53.433Z,6.47
2018-01-14T13:04:21.762Z,6.33
2018-01-14T13:06:50.315Z,6.63
2018-01-14T13:09:19.394Z,6.83
2018-01-14T13:11:47.733Z,6.77
2018-01-14T13:14:16.035Z,7.90
2018-01-14T13:16:44.361Z,7.70
2018-01-14T13:19:12.676Z,11.47
2018-01-14T13:21:40.991Z,5.40
2018-01-14T13:24:09.303Z,6.73
2018-01-14T13:26:37.647Z,5.30
2018-01-14T13:29:06.696Z,6.87
2018-01-14T13:31:35.009Z,6.80
2018-01-14T13:34:03.334Z,7.67
2018-01-14T13:36:31.630Z,6.60
2018-01-14T13:38:59.950Z,6.23
2018-01-14T13:41:28.234Z,5.40
2018-01-14T13:43:56.547Z,6.70
2018-01-14T13:46:24.880Z,5.77
2018-01-14T13:48:53.187Z,7.10
2018-01-14T13:51:21.533Z,5.90
2018-01-14T13:53:49.829Z,6.47
2018-01-14T13:56:18.124Z,5.50
2018-01-14T13:58:46.452Z,6.00
2018-01-14T14:01:14.825Z,5.63
2018-01-14T14:03:43.932Z,5.17
2018-01-14T14:06:12.244Z,5.50
2018-01-14T14:08:40.577Z,5.93
2018-01-14T14:11:09.694Z,5.13
2018-01-14T14:13:37.976Z,6.33
2018-01-14T14:16:06.289Z,6.60
2018-01-14T14:18:34.622Z,6.67
2018-01-14T14:21:03.690Z,6.30
2018-01-14T14:23:32.077Z,6.07
2018-01-14T14:26:01.143Z,5.13
2018-01-14T14:28:29.493Z,6.33
2018-01-14T14:30:58.570Z,6.13
2018-01-14T14:33:26.882Z,6.13
2018-01-14T14:35:55.204Z,3.90
2018-01-14T14:38:23.494Z,5.63
2018-01-14T14:40:51.788Z,5.47
2018-01-14T14:43:20.100Z,6.23
2018-01-14T14:45:48.408Z,5.77
2018-01-14T14:48:16.768Z,5.70
2018-01-14T14:50:45.832Z,6.03
2018-01-14T14:53:14.160Z,5.80
2018-01-14T14:55:42.464Z,5.93
2018-01-14T14:58:11.065Z,5.80
2018-01-14T15:00:39.372Z,6.27
2018-01-14T15:03:07.709Z,6.00
2018-01-14T15:05:36.062Z,5.93
2018-01-14T15:08:04.397Z,5.10
2018-01-14T15:10:32.719Z,5.77
2018-01-14T15:13:01.012Z,7.15
2018-01-14T15:15:29.447Z,7.13
2018-01-14T15:17:58.890Z,5.87
2018-01-14T15:20:27.188Z,6.70
2018-01-14T15:22:55.516Z,6.00
2018-01-14T15:25:23.839Z,6.10
2018-01-14T15:27:52.212Z,6.43
2018-01-14T15:30:20.605Z,5.57
2018-01-14T15:32:49.688Z,5.93
2018-01-14T15:35:18.016Z,5.97
2018-01-14T15:37:47.087Z,5.53
2018-01-14T15:40:15.422Z,6.40
2018-01-14T15:42:43.722Z,5.73
2018-01-14T15:45:12.038Z,13.60
2018-01-14T15:47:40.361Z,5.90
2018-01-14T15:50:08.728Z,6.20
2018-01-14T15:52:37.045Z,7.40
2018-01-14T15:55:05.456Z,6.10
2018-01-14T15:57:40.357Z,6.13
2018-01-14T16:00:08.749Z,5.20
2018-01-14T16:02:38.412Z,7.30
2018-01-14T16:05:06.719Z,7.30
2018-01-14T16:07:35.057Z,6.73
2018-01-14T16:10:04.135Z,8.60
2018-01-14T16:12:32.472Z,11.27
2018-01-14T16:15:00.824Z,8.23
2018-01-14T16:17:29.147Z,6.67
2018-01-14T16:20:00.281Z,7.50
2018-01-14T16:22:28.625Z,7.80
2018-01-14T16:24:59.050Z,8.70
2018-01-14T16:27:27.409Z,7.70
2018-01-14T16:29:55.735Z,8.43
2018-01-14T16:32:24.045Z,6.90
2018-01-14T16:34:52.342Z,8.80
2018-01-14T16:37:27.493Z,6.77
2018-01-14T16:42:40.613Z,6.10
2018-01-14T16:45:11.689Z,6.60
2018-01-14T16:47:40.051Z,8.80
2018-01-14T16:50:08.441Z,7.50
2018-01-14T16:52:36.744Z,7.30
2018-01-14T16:55:05.064Z,7.10
2018-01-14T16:57:33.435Z,8.27
2018-01-14T17:00:01.812Z,6.77
2018-01-14T17:02:32.967Z,7.00
2018-01-14T17:05:02.310Z,8.23
2018-01-14T17:07:30.644Z,9.50
2018-01-14T17:09:58.945Z,8.30
2018-01-14T17:12:27.273Z,7.43
2018-01-14T17:14:56.460Z,8.50
2018-01-14T17:17:24.749Z,6.63
2018-01-14T17:19:53.065Z,7.93
2018-01-14T17:22:21.569Z,7.27
2018-01-14T17:24:49.884Z,8.60
2018-01-14T17:27:18.976Z,7.70
2018-01-14T17:29:47.267Z,8.63
2018-01-14T17:32:15.600Z,7.83
2018-01-14T17:34:43.930Z,7.60
2018-01-14T17:37:12.235Z,7.70
2018-01-14T17:39:40.556Z,6.90
2018-01-14T17:42:08.911Z,6.80
2018-01-14T17:44:37.563Z,8.30
2018-01-14T17:47:06.647Z,9.27
2018-01-14T17:49:36.359Z,9.20
2018-01-14T17:52:05.688Z,8.97
2018-01-14T17:57:14.049Z,7.80
2018-01-14T17:59:42.353Z,7.60
2018-01-14T18:02:10.676Z,19.20
2018-01-14T18:04:39.021Z,8.77
2018-01-14T18:07:07.327Z,8.20
2018-01-14T18:09:35.624Z,9.27
2018-01-14T18:12:03.989Z,8.63
2018-01-14T18:14:32.332Z,8.93
2018-01-14T18:17:02.471Z,9.20
2018-01-14T18:19:30.820Z,10.20
2018-01-14T18:21:59.125Z,9.07
2018-01-14T18:24:27.434Z,9.50
2018-01-14T18:26:55.824Z,8.10
2018-01-14T18:29:24.958Z,8.73
2018-01-14T18:31:54.281Z,8.37
2018-01-14T18:34:22.643Z,9.57
2018-01-14T18:36:50.945Z,9.40
2018-01-14T18:39:19.864Z,9.37
2018-01-14T18:41:48.218Z,7.73
2018-01-14T18:44:16.547Z,9.70
2018-01-14T18:46:44.900Z,10.30
2018-01-14T18:49:13.992Z,10.83
2018-01-14T18:51:42.425Z,10.30
2018-01-14T18:54:11.585Z,10.23
2018-01-14T18:56:40.702Z,10.40
2018-01-14T18:59:09.574Z,10.40
2018-01-14T19:01:37.905Z,9.77
2018-01-14T19:04:07.407Z,9.17
2018-01-14T19:06:35.721Z,10.20
2018-01-14T19:09:04.808Z,11.30
2018-01-14T19:11:33.941Z,11.07
2018-01-14T19:14:02.289Z,10.77
2018-01-14T19:16:30.578Z,10.77
2018-01-14T19:18:59.647Z,10.83
2018-01-14T19:21:28.762Z,10.77
2018-01-14T19:23:57.531Z,9.70
2018-01-14T19:26:26.270Z,10.45
2018-01-14T19:28:54.623Z,10.60
2018-01-14T19:31:23.446Z,10.00
2018-01-14T19:33:52.604Z,10.80
2018-01-14T19:36:21.795Z,9.87
2018-01-14T19:38:50.148Z,11.80
2018-01-14T19:41:18.469Z,10.15
2018-01-14T19:43:46.800Z,9.87
2018-01-14T19:46:16.290Z,8.60
2018-01-14T19:48:44.718Z,10.20
2018-01-14T19:51:13.035Z,10.20
2018-01-14T19:53:42.937Z,11.40
2018-01-14T19:56:11.244Z,9.33
2018-01-14T19:58:39.572Z,9.00
2018-01-14T20:01:08.632Z,10.93
2018-01-14T20:03:37.713Z,9.13
2018-01-14T20:06:06.140Z,10.00
2018-01-14T20:08:34.433Z,8.85
2018-01-14T20:11:02.866Z,9.30
2018-01-14T20:13:31.170Z,9.73
2018-01-14T20:15:59.497Z,9.20
2018-01-14T20:18:27.832Z,8.30
2018-01-14T20:20:56.309Z,9.43
2018-01-14T20:23:25.574Z,9.20
2018-01-14T20:25:53.986Z,8.63
2018-01-14T20:28:23.057Z,9.30
2018-01-14T20:30:53.335Z,9.32
2018-01-14T20:33:21.678Z,10.75
2018-01-14T20:35:50.007Z,9.85
2018-01-14T20:38:19.808Z,9.40
2018-01-14T20:40:52.189Z,9.70
2018-01-14T20:43:20.550Z,8.50
2018-01-14T20:45:48.886Z,8.37
2018-01-14T20:48:17.214Z,10.50
2018-01-14T20:50:45.668Z,10.48
2018-01-14T20:53:14.932Z,10.48
2018-01-14T20:55:43.224Z,10.32
2018-01-14T20:58:11.775Z,8.80
2018-01-14T21:00:40.222Z,11.10
2018-01-14T21:03:09.073Z,9.85
2018-01-14T21:05:37.438Z,9.50
2018-01-14T21:08:05.808Z,11.15
2018-01-14T21:10:34.120Z,8.52
2018-01-14T21:13:02.464Z,8.63
2018-01-14T21:15:30.884Z,8.25
2018-01-14T21:17:59.409Z,11.40
2018-01-14T21:20:27.793Z,9.30
2018-01-14T21:22:56.138Z,8.63
2018-01-14T21:25:25.289Z,10.30
2018-01-14T21:27:53.586Z,10.95
2018-01-14T21:30:22.676Z,9.48
2018-01-14T21:32:51.008Z,10.07
2018-01-14T21:35:20.107Z,8.65
2018-01-14T21:37:48.580Z,9.85
2018-01-14T21:40:17.059Z,9.30
2018-01-14T21:42:51.012Z,9.98
2018-01-14T21:45:20.130Z,8.60
2018-01-14T21:47:48.412Z,8.90
2018-01-14T21:50:16.727Z,9.63
2018-01-14T21:52:45.045Z,9.02
2018-01-14T21:55:13.397Z,10.80
2018-01-14T21:57:43.961Z,8.27
2018-01-14T22:00:13.085Z,9.20
2018-01-14T22:02:41.457Z,8.15
2018-01-14T22:05:09.818Z,8.13
2018-01-14T22:07:38.108Z,6.22
2018-01-14T22:10:06.573Z,7.85
2018-01-14T22:12:35.504Z,9.63
2018-01-14T22:15:03.865Z,8.07
2018-01-14T22:17:32.162Z,9.13
2018-01-14T22:20:00.497Z,8.77
2018-01-14T22:22:29.775Z,8.40
2018-01-14T22:24:58.077Z,7.95
2018-01-14T22:27:26.423Z,7.22
2018-01-14T22:29:55.064Z,8.85
2018-01-14T22:32:23.409Z,7.37
2018-01-14T22:34:51.742Z,6.47
2018-01-14T22:37:20.058Z,8.38
2018-01-14T22:39:48.517Z,8.10
2018-01-14T22:42:16.839Z,6.47
2018-01-14T22:44:45.185Z,7.28
2018-01-14T22:47:14.249Z,7.47
2018-01-14T22:49:42.646Z,8.43
2018-01-14T22:52:10.947Z,7.60
2018-01-14T22:54:39.365Z,7.93
2018-01-14T22:57:07.692Z,9.10
2018-01-14T22:59:36.203Z,7.37
2018-01-14T23:02:05.278Z,7.20
2018-01-14T23:04:34.281Z,6.40
2018-01-14T23:07:02.581Z,9.85
2018-01-14T23:09:30.899Z,8.18
2018-01-14T23:11:59.213Z,9.25
2018-01-14T23:14:27.527Z,7.50
2018-01-14T23:16:56.588Z,7.75
2018-01-14T23:19:25.132Z,8.88
2018-01-14T23:21:53.431Z,6.65
2018-01-14T23:24:21.764Z,7.25
2018-01-14T23:26:50.050Z,7.68
2018-01-14T23:29:19.133Z,8.70
2018-01-14T23:31:54.470Z,7.70
2018-01-14T23:34:22.787Z,7.25
2018-01-14T23:36:51.106Z,7.20
2018-01-14T23:39:19.870Z,8.43
2018-01-14T23:41:48.937Z,8.32
2018-01-14T23:44:17.362Z,7.60
2018-01-14T23:46:45.655Z,6.80
2018-01-14T23:49:14.733Z,7.18
2018-01-14T23:51:43.039Z,7.50
2018-01-14T23:54:11.362Z,8.45
2018-01-14T23:56:39.668Z,9.48
2018-01-14T23:59:07.994Z,8.68
